Walls, Mississippi
Current Conditions -  °F | °C
As of 7:54 PM on Friday 24 Oct 2014 (Local Time) from KMEM Reporting Station
Few Clouds Few Clouds  
Wind Chill: 62°   Ceiling: Unl
Heat Index: 62°   Visibility: 10mi
Dew Point: 56°   Wind: 3mph
Humidity: 80%   Direction: 220°SW
Pressure: 30.09"   Gusts: NA
Location:  34.94°N, 90.09°W
Report Text: KMEM 250054Z 22003KT 10SM FEW250 17/13 A3009 RMK AO2 SLP188 T01670133 $
Loading
Personal Weather Stations






























Interactive Weather Map
Tropical Storm Tracking
New forecast layout! Learn more

10-Day Weather Forecast

Advertisements
Track Severe Weather on mobile